Accueil
METAR-TAF:

METAR-TAF

Aéroports :

Malekula, Vanuatu

latitude: 16-27-26S, longitude: 167-49-42E, altitude: 2 m

Observation

Le bulletin a été fait il y a 28 minutes, à 20:00 UTC
Vent 10 kt de est/sud-est
Température 26°C
Humidité 89%
Pression 1010 hPa
Visibilité 10 km ou plus
Nuages épars à une hauteur de 2000 ft
Nuages fragmentés à une hauteur de 4000 ft

METAR: NVSL 222000Z 11010KT 9999 SCT020 BKN040 26/24 Q1010 RMK NIL

Heure: 07:28 (20:28 UTC)

Prévision

Le bulletin a été fait il y a 4 heures et 28 minutes, à 16:00 UTC
Prévision valable du 22 à 18 UTC au 23 à 18 UTC
Vent 12 kt de est
Visibilité: 8000 m
Nuages épars à une hauteur de 2000 ft
Nuages fragmentés à une hauteur de 1800 ft
averses de pluie

TAF: NVSL 221600Z 2218/2318 09012KT 9999 SCT020 INTER 2218/2224 8000 SHRA BKN018

Observations et prévisions météorologiques de plus de 4000 aéroports (messages METAR et TAF).

Les stations disponibles sont représentées par des disques jaunes et rouges sur la carte.

Passer la souris dessus pour voir le nom de la station.

Cliquer dessus pour voir les observations et prévisions météorologiques.

Pour changer de carte: cliquez sur les boutons verts avec une croix noire pour zoomer, sur le bouton vert avec un tiret pour effectuer un zoom arrière, ou sur les flèches vertes pour les cartes adjacentes.


METAR-TAF: